Time;durP1;ratioP1;P1;durP2;ratioP2;P2;SDS_P1;SDS_P2;PMS_P1;PMS_P2;Temp;Humidity;BMP_temperature;BMP_pressure;BME280_temperature;BME280_humidity;BME280_pressure;Samples;Min_cycle;Max_cycle;Signal;HPM_P1;HPM_P2
2022/04/13 00:01:11;;;;;;;4.33;4.03;;;11.90;99.90;;;;;;4930259;28;20265;-85
2022/04/13 00:03:37;;;;;;;3.70;3.40;;;12.00;99.90;;;;;;4942384;28;20641;-85
2022/04/13 00:06:07;;;;;;;4.23;3.93;;;12.00;99.90;;;;;;4944132;28;20248;-85
2022/04/13 00:08:32;;;;;;;4.30;3.97;;;12.00;99.90;;;;;;4928193;28;20470;-85
2022/04/13 00:11:00;;;;;;;5.20;4.53;;;11.90;99.90;;;;;;4930916;28;20380;-85
2022/04/13 00:13:25;;;;;;;4.20;3.87;;;11.90;99.90;;;;;;4940544;28;20197;-85
2022/04/13 00:15:51;;;;;;;4.03;3.53;;;12.00;99.90;;;;;;4950437;28;20459;-85
2022/04/13 00:18:16;;;;;;;4.37;3.93;;;11.90;99.90;;;;;;4937070;28;20192;-85
2022/04/13 00:20:42;;;;;;;4.47;4.07;;;11.90;99.90;;;;;;4931957;28;20256;-85
2022/04/13 00:23:08;;;;;;;7.40;3.93;;;11.90;99.90;;;;;;4924286;28;21459;-85
2022/04/13 00:25:36;;;;;;;5.23;4.10;;;11.90;99.90;;;;;;4926811;28;20790;-85
2022/04/13 00:28:01;;;;;;;4.80;4.40;;;11.80;99.90;;;;;;4949749;28;20664;-85
2022/04/13 00:30:27;;;;;;;4.57;4.17;;;11.70;99.90;;;;;;4939857;28;20443;-85
2022/04/13 00:32:52;;;;;;;4.80;4.33;;;11.70;99.90;;;;;;4924116;28;20228;-84
2022/04/13 00:35:19;;;;;;;3.90;3.57;;;11.70;99.90;;;;;;4925332;28;20707;-85
2022/04/13 00:37:44;;;;;;;4.20;3.90;;;11.80;99.90;;;;;;4941140;28;20324;-86
2022/04/13 00:40:10;;;;;;;4.37;4.00;;;11.70;99.90;;;;;;4925217;28;21236;-85
2022/04/13 00:42:36;;;;;;;6.10;4.50;;;11.70;99.90;;;;;;4925943;28;20190;-85
2022/04/13 00:45:02;;;;;;;4.17;3.87;;;11.70;99.90;;;;;;4942080;28;20446;-85
2022/04/13 00:47:28;;;;;;;3.90;3.50;;;11.70;99.90;;;;;;4953616;28;20186;-85
2022/04/13 00:49:54;;;;;;;4.57;3.73;;;11.70;99.90;;;;;;4947821;28;20701;-85
2022/04/13 00:52:21;;;;;;;4.67;3.20;;;11.60;99.90;;;;;;4923808;28;20381;-85
2022/04/13 00:54:48;;;;;;;4.00;3.67;;;11.60;99.90;;;;;;4940532;28;20581;-85
2022/04/13 00:57:16;;;;;;;3.97;3.60;;;11.60;99.90;;;;;;4948113;28;20690;-85
2022/04/13 00:59:44;;;;;;;3.70;3.30;;;11.60;99.90;;;;;;4933125;28;20440;-85
2022/04/13 01:02:12;;;;;;;4.20;3.10;;;11.60;99.90;;;;;;4954353;28;20444;-85
2022/04/13 01:04:38;;;;;;;4.27;3.90;;;11.50;99.90;;;;;;4923299;28;20449;-84
2022/04/13 01:07:07;;;;;;;3.37;3.17;;;11.60;99.90;;;;;;4931246;28;20452;-85
2022/04/13 01:09:34;;;;;;;3.83;3.53;;;11.60;99.90;;;;;;4930609;28;20436;-85
2022/04/13 01:12:00;;;;;;;3.80;3.50;;;11.50;99.90;;;;;;4925979;28;20567;-85
2022/04/13 01:14:25;;;;;;;3.33;3.13;;;11.50;99.90;;;;;;4933129;28;20440;-85
2022/04/13 01:16:51;;;;;;;4.40;3.63;;;11.40;99.90;;;;;;4933086;28;20197;-86
2022/04/13 01:19:17;;;;;;;3.53;3.23;;;11.40;99.90;;;;;;4947398;28;20185;-86
2022/04/13 01:21:58;;;;;;;3.60;3.30;;;11.30;99.90;;;;;;4933546;28;20190;-85
2022/04/13 01:24:25;;;;;;;3.67;3.37;;;11.40;99.90;;;;;;4951963;28;20484;-86
2022/04/13 01:26:51;;;;;;;4.00;3.70;;;11.30;99.90;;;;;;4948993;28;20464;-85
2022/04/13 01:29:17;;;;;;;3.50;3.20;;;11.30;99.90;;;;;;4941876;28;20503;-86
2022/04/13 01:31:43;;;;;;;5.03;3.97;;;11.20;99.90;;;;;;4941427;28;20266;-86
2022/04/13 01:34:09;;;;;;;4.17;3.70;;;11.20;99.90;;;;;;4937104;28;20194;-86
2022/04/13 01:36:38;;;;;;;4.57;4.17;;;11.10;99.90;;;;;;4942242;28;20695;-84
2022/04/13 01:39:05;;;;;;;4.10;3.77;;;11.00;99.90;;;;;;4944382;28;20216;-84
2022/04/13 01:41:31;;;;;;;4.27;3.87;;;11.00;99.90;;;;;;4942345;28;20448;-86
2022/04/13 01:43:57;;;;;;;4.40;3.63;;;11.00;99.90;;;;;;4949709;28;20464;-85
2022/04/13 01:46:37;;;;;;;4.50;3.80;;;10.80;99.90;;;;;;4962307;28;20215;-85
2022/04/13 01:49:08;;;;;;;3.90;3.53;;;10.80;99.90;;;;;;4952525;28;20228;-85
2022/04/13 01:51:33;;;;;;;3.70;3.40;;;10.90;99.90;;;;;;4962628;28;21040;-85
2022/04/13 01:53:59;;;;;;;5.70;3.57;;;10.80;99.90;;;;;;4951318;28;20443;-85
2022/04/13 01:56:25;;;;;;;3.50;3.10;;;10.80;99.90;;;;;;4953170;28;20613;-85
2022/04/13 01:58:50;;;;;;;4.30;3.90;;;10.80;99.90;;;;;;4952811;28;20275;-85
2022/04/13 02:01:17;;;;;;;4.53;3.57;;;10.80;99.90;;;;;;4964612;28;20271;-85
2022/04/13 02:03:43;;;;;;;3.50;3.20;;;10.70;99.90;;;;;;4956503;28;20295;-84
2022/04/13 02:06:08;;;;;;;3.87;3.47;;;10.70;99.90;;;;;;4954603;28;20543;-85
2022/04/13 02:08:34;;;;;;;3.43;3.13;;;10.70;99.90;;;;;;4948915;28;20209;-84
2022/04/13 02:11:00;;;;;;;3.80;3.50;;;10.80;99.90;;;;;;4951217;28;20264;-85
2022/04/13 02:13:25;;;;;;;4.40;3.00;;;10.70;99.90;;;;;;4943713;28;20313;-84
2022/04/13 02:15:51;;;;;;;3.37;3.07;;;10.60;99.90;;;;;;4947652;28;20205;-84
2022/04/13 02:18:16;;;;;;;3.57;3.27;;;10.60;99.90;;;;;;4962945;28;20547;-85
2022/04/13 02:20:42;;;;;;;3.10;2.90;;;10.50;99.90;;;;;;4958447;28;20205;-85
2022/04/13 02:23:11;;;;;;;3.23;3.03;;;10.50;99.90;;;;;;4946178;28;20189;-84
2022/04/13 02:25:36;;;;;;;3.47;3.17;;;10.40;99.90;;;;;;4964039;28;20283;-85
2022/04/13 02:28:03;;;;;;;3.57;3.27;;;10.30;99.90;;;;;;4952228;28;20444;-85
2022/04/13 02:30:29;;;;;;;3.80;3.50;;;10.30;99.90;;;;;;4962379;28;20466;-85
2022/04/13 02:32:58;;;;;;;3.37;3.00;;;10.30;99.90;;;;;;4946840;28;21026;-85
2022/04/13 02:35:23;;;;;;;4.50;3.60;;;10.20;99.90;;;;;;4956257;28;20181;-86
2022/04/13 02:38:04;;;;;;;5.07;3.60;;;10.20;99.90;;;;;;4943397;28;21025;-86
2022/04/13 02:40:30;;;;;;;4.33;4.03;;;10.10;99.90;;;;;;4943471;28;20252;-85
2022/04/13 02:42:56;;;;;;;4.20;3.67;;;10.00;99.90;;;;;;4962141;28;20461;-85
2022/04/13 02:45:24;;;;;;;4.60;3.97;;;9.90;99.90;;;;;;4974076;28;20506;-85
2022/04/13 02:47:50;;;;;;;4.17;3.77;;;9.90;99.90;;;;;;4955477;28;20184;-85
2022/04/13 02:50:16;;;;;;;4.00;3.70;;;9.80;99.90;;;;;;4967886;28;20453;-86
2022/04/13 02:52:49;;;;;;;4.23;3.93;;;9.80;99.90;;;;;;4971161;28;20348;-85
2022/04/13 02:55:15;;;;;;;6.10;3.90;;;9.80;99.90;;;;;;4957188;28;21041;-85
2022/04/13 02:57:40;;;;;;;5.10;4.03;;;9.90;99.90;;;;;;4959798;28;20181;-85
2022/04/13 03:00:07;;;;;;;4.17;3.70;;;9.80;99.90;;;;;;4974981;28;20663;-86
2022/04/13 03:02:33;;;;;;;4.30;4.00;;;9.80;99.90;;;;;;4964472;28;20674;-86
2022/04/13 03:04:58;;;;;;;4.43;4.03;;;9.70;99.90;;;;;;4963638;28;20441;-86
2022/04/13 03:07:26;;;;;;;4.67;4.27;;;9.70;99.90;;;;;;4953772;28;20192;-85
2022/04/13 03:09:52;;;;;;;4.50;4.10;;;9.70;99.90;;;;;;4964907;28;20193;-84
2022/04/13 03:12:18;;;;;;;4.70;3.90;;;9.70;99.90;;;;;;4946774;28;20473;-85
2022/04/13 03:14:43;;;;;;;5.50;3.73;;;9.70;99.90;;;;;;4948262;28;20217;-85
2022/04/13 03:17:09;;;;;;;3.53;3.23;;;9.70;99.90;;;;;;4951911;28;20936;-85
2022/04/13 03:19:34;;;;;;;4.13;3.73;;;9.60;99.90;;;;;;4951814;28;20609;-85
2022/04/13 03:22:00;;;;;;;4.43;3.80;;;9.60;99.90;;;;;;4959392;28;21077;-85
2022/04/13 03:24:26;;;;;;;4.03;3.63;;;9.60;99.90;;;;;;4957929;28;20663;-85
2022/04/13 03:26:52;;;;;;;4.07;3.77;;;9.60;99.90;;;;;;4951183;28;20194;-85
2022/04/13 03:29:18;;;;;;;4.67;4.07;;;9.60;99.90;;;;;;4961483;28;20616;-85
2022/04/13 03:31:44;;;;;;;4.40;4.03;;;9.40;99.90;;;;;;4963348;28;20483;-85
2022/04/13 03:34:10;;;;;;;3.90;3.60;;;9.40;99.90;;;;;;4958910;28;20442;-85
2022/04/13 03:36:41;;;;;;;4.20;3.90;;;9.40;99.90;;;;;;4968049;28;20185;-85
2022/04/13 03:39:07;;;;;;;4.83;3.80;;;9.40;99.90;;;;;;4957440;28;20433;-85
2022/04/13 03:41:36;;;;;;;4.40;4.00;;;9.40;99.90;;;;;;4951967;28;20448;-85
2022/04/13 03:44:03;;;;;;;5.00;4.30;;;9.50;99.90;;;;;;4953030;28;20452;-85
2022/04/13 03:46:29;;;;;;;4.73;4.27;;;9.40;99.90;;;;;;4948430;28;20452;-85
2022/04/13 03:48:54;;;;;;;4.80;4.40;;;9.40;99.90;;;;;;4947642;28;20472;-85
2022/04/13 03:51:20;;;;;;;6.57;5.03;;;9.40;99.90;;;;;;4949682;28;20551;-85
2022/04/13 03:53:45;;;;;;;4.73;4.20;;;9.50;99.90;;;;;;4960914;28;20549;-85
2022/04/13 03:56:11;;;;;;;4.77;4.13;;;9.50;99.90;;;;;;4965655;28;20651;-86
2022/04/13 03:58:40;;;;;;;5.00;4.50;;;9.60;99.90;;;;;;4960424;28;20193;-85
2022/04/13 04:01:06;;;;;;;5.27;4.87;;;9.70;99.90;;;;;;4966553;28;20197;-86
2022/04/13 04:03:31;;;;;;;7.07;5.40;;;9.70;99.90;;;;;;4954212;28;20444;-86
2022/04/13 04:05:57;;;;;;;5.33;4.93;;;9.70;99.90;;;;;;4955660;28;20436;-85
2022/04/13 04:08:25;;;;;;;6.20;5.10;;;9.80;99.90;;;;;;4959906;28;20213;-85
2022/04/13 04:10:52;;;;;;;5.03;4.53;;;9.80;99.90;;;;;;4958865;28;20538;-85
2022/04/13 04:13:18;;;;;;;6.30;5.80;;;9.90;99.90;;;;;;4955239;28;20480;-86
2022/04/13 04:15:43;;;;;;;7.23;4.80;;;9.90;99.90;;;;;;4954783;28;20452;-86
2022/04/13 04:18:09;;;;;;;5.87;5.37;;;9.90;99.90;;;;;;4947521;28;20193;-83
2022/04/13 04:20:39;;;;;;;5.30;4.80;;;9.90;99.90;;;;;;4968944;28;20559;-82
2022/04/13 04:23:05;;;;;;;5.80;4.90;;;9.90;99.90;;;;;;4952486;28;20576;-83
2022/04/13 04:25:30;;;;;;;5.47;4.93;;;9.90;99.90;;;;;;4949505;28;20982;-82
2022/04/13 04:27:56;;;;;;;5.60;5.00;;;9.90;99.90;;;;;;4962203;28;20227;-83
2022/04/13 04:30:22;;;;;;;6.00;5.30;;;9.80;99.90;;;;;;4962166;28;20392;-83
2022/04/13 04:32:47;;;;;;;6.60;5.00;;;9.80;99.90;;;;;;4952555;28;20372;-82
2022/04/13 04:35:15;;;;;;;6.90;5.50;;;9.80;99.90;;;;;;4951489;28;21385;-83
2022/04/13 04:37:41;;;;;;;5.20;4.63;;;9.70;99.90;;;;;;4946417;28;20376;-83
2022/04/13 04:40:07;;;;;;;6.00;5.50;;;9.70;99.90;;;;;;4959525;28;20487;-83
2022/04/13 04:42:44;;;;;;;6.67;5.20;;;9.80;99.90;;;;;;4951017;28;20193;-83
2022/04/13 04:45:10;;;;;;;6.27;5.67;;;9.80;99.90;;;;;;4956376;28;20447;-83
2022/04/13 04:47:35;;;;;;;5.90;5.40;;;9.70;99.90;;;;;;4967822;28;20451;-83
2022/04/13 04:50:01;;;;;;;6.10;5.30;;;9.70;99.90;;;;;;4952659;28;20192;-82
2022/04/13 04:52:26;;;;;;;9.00;5.50;;;9.70;99.90;;;;;;4969458;28;20360;-83
2022/04/13 04:54:52;;;;;;;8.00;5.60;;;9.70;99.90;;;;;;4953791;28;20194;-83
2022/04/13 04:57:17;;;;;;;5.70;4.63;;;9.60;99.90;;;;;;4954521;28;20197;-82
2022/04/13 04:59:43;;;;;;;7.63;6.67;;;9.60;99.90;;;;;;4968724;28;20185;-84
2022/04/13 05:02:08;;;;;;;12.17;6.90;;;9.60;99.90;;;;;;4957428;28;20186;-83
2022/04/13 05:04:34;;;;;;;13.93;6.97;;;9.70;99.90;;;;;;4958930;28;20337;-83
2022/04/13 05:06:59;;;;;;;8.47;7.67;;;9.80;99.90;;;;;;4956731;28;20190;-83
2022/04/13 05:09:25;;;;;;;9.03;8.07;;;9.90;99.90;;;;;;4968996;28;20204;-82
2022/04/13 05:11:51;;;;;;;9.37;8.40;;;9.90;99.90;;;;;;4944562;28;20635;-82
2022/04/13 05:14:18;;;;;;;8.40;7.60;;;9.90;99.90;;;;;;4958112;28;20194;-82
2022/04/13 05:16:44;;;;;;;7.60;6.80;;;10.00;99.90;;;;;;4959374;28;20321;-82
2022/04/13 05:19:09;;;;;;;8.40;7.60;;;10.10;99.90;;;;;;4946623;28;20435;-82
2022/04/13 05:21:35;;;;;;;7.90;7.20;;;10.10;99.90;;;;;;4950771;28;20205;-82
2022/04/13 05:24:00;;;;;;;6.73;6.13;;;10.10;99.90;;;;;;4971791;28;20182;-82
2022/04/13 05:26:26;;;;;;;8.90;7.13;;;10.20;99.90;;;;;;4947311;28;20193;-83
2022/04/13 05:28:51;;;;;;;8.47;6.43;;;10.20;99.90;;;;;;4950198;28;20619;-82
2022/04/13 05:31:17;;;;;;;7.80;7.00;;;10.30;99.90;;;;;;4951618;28;20220;-82
2022/04/13 05:33:43;;;;;;;10.63;8.40;;;10.30;99.90;;;;;;4951930;28;20542;-83
2022/04/13 05:36:08;;;;;;;8.40;7.60;;;10.40;99.90;;;;;;4953131;28;20616;-82
2022/04/13 05:38:34;;;;;;;8.30;7.50;;;10.50;99.90;;;;;;4947412;28;20194;-83
2022/04/13 05:41:00;;;;;;;8.23;7.43;;;10.60;99.90;;;;;;4962880;28;20659;-83
2022/04/13 05:43:28;;;;;;;9.60;6.33;;;10.70;99.90;;;;;;4954685;28;20224;-83
2022/04/13 05:45:54;;;;;;;8.13;5.73;;;10.80;99.90;;;;;;4968899;28;20738;-84
2022/04/13 05:48:19;;;;;;;7.03;6.37;;;10.90;99.90;;;;;;4947624;28;20449;-83
2022/04/13 05:50:45;;;;;;;6.40;5.70;;;11.00;99.90;;;;;;4949170;28;24087;-83
2022/04/13 05:53:10;;;;;;;6.53;5.93;;;11.20;99.90;;;;;;4950755;28;20263;-83
2022/04/13 05:55:36;;;;;;;6.13;5.63;;;11.20;99.90;;;;;;4972328;28;20240;-83
2022/04/13 05:58:01;;;;;;;6.60;6.10;;;11.20;99.90;;;;;;4953695;28;20193;-84
2022/04/13 06:00:27;;;;;;;9.80;7.40;;;11.30;99.90;;;;;;4956215;28;20252;-84
2022/04/13 06:02:52;;;;;;;6.00;5.50;;;11.50;99.90;;;;;;4962611;28;20212;-83
2022/04/13 06:05:20;;;;;;;9.23;6.90;;;11.60;99.90;;;;;;4944583;28;20185;-83
2022/04/13 06:07:47;;;;;;;8.80;7.90;;;11.80;99.90;;;;;;4945554;28;20190;-83
2022/04/13 06:10:22;;;;;;;9.50;8.20;;;12.00;99.90;;;;;;4943901;28;20465;-85
2022/04/13 06:13:11;;;;;;;10.50;8.07;;;12.10;99.90;;;;;;4935977;28;20476;-83
2022/04/13 06:15:37;;;;;;;7.90;6.80;;;12.20;99.90;;;;;;4943895;28;20441;-83
2022/04/13 06:18:02;;;;;;;9.20;6.17;;;12.20;99.90;;;;;;4952380;28;20442;-83
2022/04/13 06:20:28;;;;;;;7.47;6.50;;;12.20;99.90;;;;;;4941955;28;20190;-83
2022/04/13 06:22:53;;;;;;;6.20;5.70;;;12.30;99.90;;;;;;4960648;28;20714;-83
2022/04/13 06:25:20;;;;;;;7.50;5.50;;;12.30;99.90;;;;;;4953600;28;21388;-83
2022/04/13 06:27:46;;;;;;;6.40;5.90;;;12.40;99.90;;;;;;4955179;28;21223;-83
2022/04/13 06:30:12;;;;;;;6.10;5.60;;;12.40;99.90;;;;;;4970025;28;21122;-86
2022/04/13 06:32:40;;;;;;;8.77;5.70;;;12.40;99.90;;;;;;4946257;28;20486;-85
2022/04/13 06:35:08;;;;;;;6.50;6.00;;;12.30;99.90;;;;;;4942958;28;20437;-85
2022/04/13 06:37:38;;;;;;;10.30;6.03;;;12.20;99.90;;;;;;4950934;28;20457;-85
2022/04/13 06:40:06;;;;;;;5.83;5.23;;;12.40;99.90;;;;;;4949595;28;20533;-85
2022/04/13 06:42:33;;;;;;;5.87;5.40;;;12.50;99.90;;;;;;4950383;28;20477;-84
2022/04/13 06:44:59;;;;;;;6.57;5.83;;;12.70;99.90;;;;;;4955932;28;20439;-86
2022/04/13 06:47:25;;;;;;;8.30;6.17;;;12.80;99.90;;;;;;4948313;28;20453;-85
2022/04/13 06:49:51;;;;;;;6.73;5.67;;;12.90;99.90;;;;;;4944292;28;21204;-86
2022/04/13 06:52:17;;;;;;;6.83;5.73;;;13.00;99.90;;;;;;4949620;28;20710;-86
2022/04/13 06:54:43;;;;;;;6.63;6.00;;;13.10;99.90;;;;;;4946741;28;20197;-85
2022/04/13 06:57:09;;;;;;;5.90;5.30;;;13.10;99.90;;;;;;4961707;28;20804;-86
2022/04/13 06:59:37;;;;;;;6.10;5.60;;;13.40;99.90;;;;;;4971412;28;20235;-85
2022/04/13 07:02:03;;;;;;;5.53;5.13;;;13.50;99.90;;;;;;4965071;28;20540;-88
2022/04/13 07:04:29;;;;;;;6.17;5.60;;;13.70;99.90;;;;;;4951758;28;20483;-87
2022/04/13 07:06:54;;;;;;;5.90;5.40;;;13.80;99.90;;;;;;4962829;28;20440;-86
2022/04/13 07:09:20;;;;;;;6.13;5.60;;;13.90;99.90;;;;;;4961548;28;21155;-86
2022/04/13 07:11:49;;;;;;;6.40;5.80;;;14.00;99.90;;;;;;4946016;28;20217;-86
2022/04/13 07:14:14;;;;;;;7.20;6.60;;;14.10;99.90;;;;;;4956011;28;20491;-86
2022/04/13 07:16:43;;;;;;;6.47;5.80;;;14.20;99.90;;;;;;4946766;28;20496;-86
2022/04/13 07:19:11;;;;;;;6.70;5.97;;;14.10;99.90;;;;;;4956575;28;20213;-87
2022/04/13 07:21:51;;;;;;;6.57;5.93;;;14.20;99.90;;;;;;4969077;28;20513;-86
2022/04/13 07:24:17;;;;;;;5.87;5.47;;;14.40;99.90;;;;;;4947826;28;20926;-82
2022/04/13 07:26:56;;;;;;;6.67;6.07;;;14.50;99.90;;;;;;4938719;28;20196;-83
2022/04/13 07:29:21;;;;;;;7.17;6.47;;;14.70;99.90;;;;;;4960742;28;20191;-83
2022/04/13 07:31:47;;;;;;;6.43;5.93;;;14.90;99.90;;;;;;4960988;28;20475;-85
2022/04/13 07:34:13;;;;;;;6.70;5.90;;;15.10;99.90;;;;;;4954847;28;20186;-83
2022/04/13 07:36:38;;;;;;;7.03;5.60;;;15.20;99.90;;;;;;4940842;28;21523;-84
2022/04/13 07:39:04;;;;;;;6.50;5.90;;;15.30;99.90;;;;;;4954334;28;21121;-84
2022/04/13 07:41:30;;;;;;;7.23;6.53;;;15.40;99.90;;;;;;4951300;28;20328;-83
2022/04/13 07:43:57;;;;;;;6.80;6.20;;;15.50;99.90;;;;;;4955231;28;20178;-84
2022/04/13 07:46:43;;;;;;;7.13;6.23;;;15.70;99.90;;;;;;4966420;28;20455;-84
2022/04/13 07:49:09;;;;;;;8.43;5.80;;;16.00;99.90;;;;;;4946639;28;20480;-83
2022/04/13 07:51:35;;;;;;;6.77;6.07;;;16.30;99.90;;;;;;4953270;28;21252;-86
2022/04/13 07:54:01;;;;;;;6.33;5.70;;;16.30;99.90;;;;;;4959399;28;20475;-86
2022/04/13 07:56:27;;;;;;;6.00;5.60;;;16.00;99.90;;;;;;4954466;28;20455;-85
2022/04/13 07:58:55;;;;;;;8.50;6.23;;;15.90;99.90;;;;;;4946177;28;20443;-84
2022/04/13 08:01:21;;;;;;;5.80;5.17;;;16.10;99.90;;;;;;4935479;28;20439;-86
2022/04/13 08:03:46;;;;;;;6.20;5.70;;;16.50;99.90;;;;;;4943407;28;21165;-88
2022/04/13 08:06:12;;;;;;;6.57;5.73;;;16.50;99.10;;;;;;4934283;28;20188;-87
2022/04/13 08:08:38;;;;;;;6.30;5.70;;;16.40;99.20;;;;;;4942473;28;20197;-88
2022/04/13 08:11:04;;;;;;;6.37;5.83;;;16.70;99.20;;;;;;4947200;28;20174;-88
2022/04/13 08:13:30;;;;;;;6.80;6.20;;;16.70;98.10;;;;;;4959781;28;20488;-88
2022/04/13 08:15:56;;;;;;;5.90;5.40;;;16.60;98.70;;;;;;4934641;28;20471;-87
2022/04/13 08:18:21;;;;;;;6.10;5.40;;;16.40;99.00;;;;;;4940746;28;20201;-88
2022/04/13 08:20:47;;;;;;;6.67;5.30;;;16.40;98.20;;;;;;4930676;28;20183;-88
2022/04/13 08:23:15;;;;;;;6.07;5.10;;;16.40;98.10;;;;;;4928937;28;20190;-88
2022/04/13 08:25:43;;;;;;;6.13;5.30;;;16.50;98.70;;;;;;4934075;28;20182;-88
2022/04/13 08:28:08;;;;;;;5.97;4.93;;;16.70;97.70;;;;;;4948437;28;20571;-87
2022/04/13 08:30:40;;;;;;;5.53;5.00;;;16.90;96.70;;;;;;4946777;28;20992;-88
2022/04/13 08:33:11;;;;;;;7.00;4.83;;;16.80;96.80;;;;;;4940264;28;20669;-87
2022/04/13 08:35:42;;;;;;;5.77;5.37;;;16.80;96.70;;;;;;4932218;28;20777;-87
2022/04/13 08:38:08;;;;;;;5.10;4.60;;;17.30;96.40;;;;;;4946654;28;20450;-87
2022/04/13 08:40:41;;;;;;;5.33;4.83;;;17.80;95.60;;;;;;4940166;28;20456;-88
2022/04/13 08:43:09;;;;;;;4.73;4.27;;;18.10;94.80;;;;;;4929718;28;20850;-86
2022/04/13 08:45:42;;;;;;;5.03;4.63;;;18.30;92.70;;;;;;4953167;28;20439;-88
2022/04/13 08:48:11;;;;;;;5.87;4.80;;;18.20;93.60;;;;;;4927327;28;20445;-86
2022/04/13 08:50:53;;;;;;;4.73;4.33;;;18.40;94.60;;;;;;4951120;28;21190;-86
2022/04/13 08:53:24;;;;;;;4.73;4.33;;;18.90;94.50;;;;;;4925145;28;21266;-86
2022/04/13 08:55:53;;;;;;;6.30;4.33;;;19.40;94.00;;;;;;4940308;28;20814;-87
2022/04/13 08:58:32;;;;;;;4.90;4.40;;;19.50;93.50;;;;;;4932381;28;20971;-87
2022/04/13 09:01:03;;;;;;;4.83;4.17;;;19.60;95.00;;;;;;4934774;28;20448;-87
2022/04/13 09:03:43;;;;;;;5.47;5.07;;;19.90;95.00;;;;;;4947044;28;20448;-86
2022/04/13 09:06:10;;;;;;;5.43;4.93;;;20.30;95.00;;;;;;4937792;28;20436;-86
2022/04/13 09:08:42;;;;;;;5.30;4.60;;;20.40;95.10;;;;;;4937903;28;20571;-86
2022/04/13 09:11:08;;;;;;;3.90;3.30;;;20.10;91.90;;;;;;4931779;28;20524;-87
2022/04/13 09:13:34;;;;;;;4.47;3.50;;;20.30;93.20;;;;;;4931046;28;20488;-87
2022/04/13 09:16:02;;;;;;;3.63;3.23;;;20.30;91.60;;;;;;4938201;28;22299;-87
2022/04/13 09:18:27;;;;;;;3.60;3.30;;;20.30;92.70;;;;;;4960376;28;20484;-87
2022/04/13 09:20:54;;;;;;;4.00;3.67;;;20.20;92.90;;;;;;4945067;28;20532;-87
2022/04/13 09:23:23;;;;;;;5.90;3.53;;;20.30;93.00;;;;;;4955608;28;20540;-87
2022/04/13 09:25:51;;;;;;;3.27;2.93;;;20.60;92.60;;;;;;4932365;28;20479;-87
2022/04/13 09:28:17;;;;;;;4.07;3.77;;;20.60;92.60;;;;;;4929567;28;20444;-86
2022/04/13 09:30:43;;;;;;;8.00;3.63;;;20.60;91.90;;;;;;4941474;28;20741;-87
2022/04/13 09:33:08;;;;;;;7.00;3.43;;;20.60;91.30;;;;;;4954675;28;20546;-86
2022/04/13 09:35:41;;;;;;;5.77;3.27;;;20.70;91.70;;;;;;4959441;28;20711;-87
2022/04/13 09:38:10;;;;;;;4.13;3.30;;;20.90;90.60;;;;;;4939279;28;20507;-84
2022/04/13 09:40:40;;;;;;;3.40;2.83;;;21.00;90.70;;;;;;4947980;28;20955;-88
2022/04/13 09:43:08;;;;;;;3.70;3.40;;;21.10;90.40;;;;;;4937147;28;20197;-85
2022/04/13 09:45:36;;;;;;;3.37;2.90;;;21.30;91.90;;;;;;4951183;28;20555;-89
2022/04/13 09:48:05;;;;;;;4.80;3.07;;;21.60;90.90;;;;;;4958642;28;20456;-87
2022/04/13 09:50:30;;;;;;;7.50;3.27;;;21.60;90.40;;;;;;4933341;28;20453;-86
2022/04/13 09:52:57;;;;;;;3.37;3.07;;;21.60;91.40;;;;;;4936158;28;20522;-87
2022/04/13 09:55:25;;;;;;;6.90;3.30;;;21.60;91.80;;;;;;4958542;28;20276;-87
2022/04/13 09:58:05;;;;;;;4.43;3.17;;;21.60;85.60;;;;;;4939702;28;20471;-88
2022/04/13 10:00:32;;;;;;;3.87;3.47;;;21.90;82.60;;;;;;4951403;28;20189;-88
2022/04/13 10:03:14;;;;;;;3.30;3.00;;;22.20;87.90;;;;;;4954810;28;20970;-87
2022/04/13 10:05:47;;;;;;;3.50;2.80;;;22.20;85.20;;;;;;4965763;28;20961;-88
2022/04/13 10:08:22;;;;;;;3.57;2.80;;;22.30;85.60;;;;;;4943248;28;20437;-88
2022/04/13 10:10:49;;;;;;;3.40;3.07;;;22.40;85.80;;;;;;4943924;28;22126;-88
2022/04/13 10:13:37;;;;;;;6.07;3.23;;;22.60;87.00;;;;;;4945952;28;20574;-87
2022/04/13 10:16:05;;;;;;;4.13;3.30;;;22.60;85.50;;;;;;4949568;28;20451;-87
2022/04/13 10:18:52;;;;;;;5.10;3.67;;;22.90;83.70;;;;;;4952863;28;20499;-88
2022/04/13 10:21:45;;;;;;;3.80;3.50;;;23.40;80.40;;;;;;4941874;28;20511;-88
2022/04/13 10:24:27;;;;;;;3.03;2.73;;;23.50;79.10;;;;;;4936680;28;20441;-88
2022/04/13 10:27:03;;;;;;;5.00;3.10;;;23.60;84.30;;;;;;4950574;28;20480;-89
2022/04/13 10:29:33;;;;;;;6.33;3.73;;;23.20;77.50;;;;;;4951663;28;20470;-89
2022/04/13 10:32:04;;;;;;;6.13;3.20;;;22.30;80.90;;;;;;4950672;28;20487;-88
2022/04/13 10:34:31;;;;;;;6.40;3.40;;;22.00;84.70;;;;;;4947143;28;20445;-88
2022/04/13 10:36:57;;;;;;;8.93;3.80;;;21.90;82.70;;;;;;4943913;28;20448;-88
2022/04/13 10:39:23;;;;;;;18.47;9.50;;;21.70;84.20;;;;;;4941521;28;21253;-88
2022/04/13 10:41:49;;;;;;;10.23;6.10;;;21.70;84.90;;;;;;4947590;28;20529;-88
2022/04/13 10:44:36;;;;;;;3.53;3.33;;;21.80;84.80;;;;;;4944023;28;20598;-88
2022/04/13 10:47:07;;;;;;;5.90;3.80;;;22.10;85.60;;;;;;4938648;28;20276;-89
2022/04/13 10:49:56;;;;;;;8.60;5.03;;;22.30;82.50;;;;;;4941152;28;20467;-90
2022/04/13 10:53:05;;;;;;;6.13;4.13;;;22.80;80.90;;;;;;4931484;28;20523;-88
2022/04/13 10:55:34;;;;;;;4.87;3.27;;;22.90;78.10;;;;;;4901523;28;20448;-87
2022/04/13 10:58:42;;;;;;;3.40;3.07;;;23.20;79.20;;;;;;4946581;28;20449;-88
2022/04/13 11:01:14;;;;;;;3.13;2.80;;;23.30;79.90;;;;;;4957667;28;20616;-90
2022/04/13 11:03:41;;;;;;;4.67;3.30;;;24.10;79.80;;;;;;4958764;28;20447;-90
2022/04/13 11:06:08;;;;;;;3.73;3.33;;;24.40;75.60;;;;;;4959526;28;20453;-89
2022/04/13 11:08:51;;;;;;;29.23;15.03;;;24.70;76.40;;;;;;4952306;28;20791;-89
2022/04/13 11:11:22;;;;;;;4.10;3.27;;;25.10;76.50;;;;;;4944142;28;20761;-90
2022/04/13 11:13:52;;;;;;;9.23;2.80;;;25.60;76.40;;;;;;4929166;28;20547;-87
2022/04/13 11:16:24;;;;;;;10.33;6.20;;;24.90;68.30;;;;;;4944505;28;20579;-87
2022/04/13 11:19:05;;;;;;;3.57;3.27;;;24.40;75.60;;;;;;4951818;28;20491;-85
2022/04/13 11:21:35;;;;;;;3.40;2.87;;;24.90;73.40;;;;;;4947347;28;20468;-86
2022/04/13 11:24:01;;;;;;;4.63;3.20;;;25.50;70.40;;;;;;4946838;28;20448;-85
2022/04/13 11:26:36;;;;;;;3.37;3.13;;;25.60;67.00;;;;;;4944219;28;20445;-85
2022/04/13 11:29:17;;;;;;;7.67;2.80;;;25.40;69.50;;;;;;4949811;28;20467;-86
2022/04/13 11:32:02;;;;;;;2.97;2.50;;;25.10;67.00;;;;;;4954798;28;20446;-88
2022/04/13 11:34:41;;;;;;;2.60;2.40;;;24.90;65.90;;;;;;4950677;28;20459;-87
2022/04/13 11:37:12;;;;;;;4.53;2.40;;;25.20;69.90;;;;;;4945529;28;20440;-86
2022/04/13 11:39:59;;;;;;;4.00;3.43;;;25.40;67.60;;;;;;4941715;28;20659;-86
2022/04/13 11:42:28;;;;;;;3.33;2.60;;;25.60;65.70;;;;;;4949456;28;20476;-86
2022/04/13 11:45:25;;;;;;;7.73;3.30;;;25.70;67.80;;;;;;4949131;28;20433;-88
2022/04/13 11:47:51;;;;;;;4.30;3.50;;;26.20;66.10;;;;;;4938667;28;20459;-87
2022/04/13 11:50:22;;;;;;;6.37;2.50;;;25.60;63.70;;;;;;4963026;28;20954;-88
2022/04/13 11:52:58;;;;;;;3.30;3.00;;;25.40;67.00;;;;;;4946329;28;20222;-86
2022/04/13 11:55:44;;;;;;;5.77;2.73;;;25.60;64.70;;;;;;4946592;28;20432;-88
2022/04/13 11:58:09;;;;;;;2.67;2.50;;;26.20;63.80;;;;;;4943324;28;20433;-86
2022/04/13 12:00:56;;;;;;;6.40;2.90;;;26.30;66.20;;;;;;4943036;28;20495;-88
2022/04/13 12:03:42;;;;;;;3.30;2.63;;;27.00;62.00;;;;;;4969891;28;20559;-88
2022/04/13 12:06:11;;;;;;;4.90;2.50;;;27.00;59.60;;;;;;4955344;28;20443;-89
2022/04/13 12:08:41;;;;;;;4.80;3.17;;;26.90;59.60;;;;;;4943373;28;20990;-87
2022/04/13 12:11:14;;;;;;;4.80;2.93;;;25.90;62.40;;;;;;4943105;28;20455;-86
2022/04/13 12:13:58;;;;;;;3.87;2.60;;;25.80;63.30;;;;;;4940916;28;21292;-88
2022/04/13 12:16:41;;;;;;;5.87;2.73;;;25.30;61.80;;;;;;4952655;28;20461;-88
2022/04/13 12:19:09;;;;;;;4.83;3.20;;;25.40;63.10;;;;;;4944810;28;20459;-88
2022/04/13 12:21:37;;;;;;;2.93;2.73;;;25.90;63.00;;;;;;4971586;28;20449;-88
2022/04/13 12:24:04;;;;;;;3.13;2.60;;;26.00;61.80;;;;;;4946566;28;20445;-89
2022/04/13 12:26:30;;;;;;;5.67;2.77;;;26.40;63.60;;;;;;4952714;28;20459;-89
2022/04/13 12:28:58;;;;;;;4.40;2.40;;;26.80;65.00;;;;;;4962293;28;20982;-88
2022/04/13 12:31:27;;;;;;;6.90;2.70;;;27.10;60.90;;;;;;4960736;28;20247;-89
2022/04/13 12:33:58;;;;;;;4.83;2.87;;;27.50;59.90;;;;;;4949980;28;20974;-88
2022/04/13 12:36:24;;;;;;;3.63;2.67;;;27.50;59.30;;;;;;4949926;28;20962;-89
2022/04/13 12:38:54;;;;;;;2.83;2.63;;;27.10;59.00;;;;;;4940518;28;20452;-89
2022/04/13 12:41:24;;;;;;;7.43;2.40;;;27.00;62.80;;;;;;4947182;28;20189;-87
2022/04/13 12:43:59;;;;;;;5.53;2.80;;;27.20;59.10;;;;;;4951124;28;21033;-87
2022/04/13 12:46:29;;;;;;;3.87;2.63;;;26.50;59.00;;;;;;4970622;28;20459;-88
2022/04/13 12:48:59;;;;;;;5.20;2.80;;;25.90;59.90;;;;;;4951745;28;20455;-88
2022/04/13 12:51:38;;;;;;;4.90;2.83;;;25.30;58.70;;;;;;4966480;28;20516;-88
2022/04/13 12:54:08;;;;;;;5.00;2.70;;;25.10;61.10;;;;;;4949451;28;20500;-88
2022/04/13 12:56:38;;;;;;;4.93;2.60;;;25.60;62.20;;;;;;4966067;28;20454;-88